Delphos, KS (67436)

10:37 AM CDT on August 31, 2015 (GMT -0500)
Chancy's Pond | | Change Station
CLOSE
Current Station
Personal Weather Station
Location: Delphos, KS
Elevation: 1375 ft
Nearby Weather Stations

Elev 1375 ft 39.29 °N, 97.68 °W | Updated 6 minutes ago

Clear
Clear
76.2 °F
Feels Like 77 °F
N
12.0
Wind Variable Wind from SSE
Gusts 17.0 mph

Today
High -- | Low -- °F
--% Chance of Precip.
Yesterday
High -- | Low -- °F
Precip. -- in
6:58 AM 8:03 PM
Waning Gibbous, 95% visible
Pressure 29.93 in
Visibility 5.0 miles
Clouds Clear
Heat Index 77 °F
Dew Point 71 °F
Humidity 83%
Rainfall 0.00 in
Snow Depth Not available.
UV 4 out of 12
Pollen 10.50 out of 12
Air Quality Not available.
Flu Activity Not available.
METAR KCNK 311455Z AUTO 17008KT 5SM BR CLR 23/21 A2996 RMK AO2 SLP134 T02330211 50005
Pressure 29.93 in
Visibility 5.0 miles
Clouds Clear
Heat Index 77 °F
Dew Point 71 °F
Humidity 83%
Rainfall 0.00 in
Snow Depth Not available.
UV 4 out of 12
Pollen 10.50 out of 12
Air Quality Not available.
Flu Activity Not available.
METAR KCNK 311455Z AUTO 17008KT 5SM BR CLR 23/21 A2996 RMK AO2 SLP134 T02330211 50005

10-Day Weather Forecast

×

Almanac

Astronomy

Aug. 31, 2015 Rise Set
Actual Time
Civil Twilight
Nautical Twilight
Astronomical Twilight
Moon
Length of Visible Light
Length of Day
Tomorrow will be .
, % of the Moon is Illuminated

Today's Extremes

State Highs State Lows

Community

WunderPhotos

Upload Photos

1,851,282 photos uploaded!

WunderBlogs® & News

Nearby

Air Quality

  Air Quality AQ Index Pollutant
Not available.

Snow Depth

Station Depth Elevation

Earthquake Activity

City Distance Mag. Time & Date
Minimum magnitude displayed is 2.5.

Coastal Water Temperatures

Place Temperature

Stations

Nearby Weather Stations

Station Location Temp. Windchill Dew Point Humidity Wind Precip. Elev Updated Type